Time;durP1;ratioP1;P1;durP2;ratioP2;P2;SDS_P1;SDS_P2;PMS_P1;PMS_P2;Temp;Humidity;BMP_temperature;BMP_pressure;BME280_temperature;BME280_humidity;BME280_pressure;Samples;Min_cycle;Max_cycle;Signal;HPM_P1;HPM_P2
2022/06/22 00:01:40;;;;;;;;;;;;;;;-144.99;89.56;52299.31;5084735;28;20392;-66
2022/06/22 00:04:07;;;;;;;;;;;;;;;-144.99;89.34;52295.22;5088590;28;20334;-66
2022/06/22 00:06:39;;;;;;;;;;;;;;;-144.99;89.33;52313.56;5084046;28;19924;-66
2022/06/22 00:09:06;;;;;;;;;;;;;;;-144.99;88.95;52317.66;5088256;28;19929;-67
2022/06/22 00:11:33;;;;;;;;;;;;;;;-144.99;88.44;52307.47;5086341;28;19925;-67
2022/06/22 00:14:02;;;;;;;;;;;;;;;-144.99;89.20;52342.09;5090402;28;20001;-68
2022/06/22 00:16:31;;;;;;;;;;;;;;;-144.99;89.67;52329.88;5091326;28;19928;-67
2022/06/22 00:18:58;;;;;;;;;;;;;;;-144.99;90.20;52289.13;5081636;28;19982;-67
2022/06/22 00:21:25;;;;;;;;;;;;;;;-144.99;90.22;52317.66;5090661;28;20439;-67
2022/06/22 00:23:53;;;;;;;;;;;;;;;-144.99;90.13;52321.72;5084796;28;19959;-67
2022/06/22 00:26:28;;;;;;;;;;;;;;;-144.99;90.30;52297.25;5087619;28;19932;-67
2022/06/22 00:28:56;;;;;;;;;;;;;;;-144.99;90.28;52329.88;5094115;28;19924;-67
2022/06/22 00:31:29;;;;;;;;;;;;;;;-144.99;90.04;52313.56;5089769;28;20445;-68
2022/06/22 00:34:02;;;;;;;;;;;;;;;-144.99;89.67;52319.69;5091195;28;19944;-67
2022/06/22 00:36:33;;;;;;;;;;;;;;;-144.99;89.78;52301.34;5085175;28;19932;-67
2022/06/22 00:39:08;;;;;;;;;;;;;;;-144.99;89.99;52305.41;5088779;28;20003;-66
2022/06/22 00:41:34;;;;;;;;;;;;;;;-144.99;91.10;52260.56;5083213;28;20351;-66
2022/06/22 00:44:06;;;;;;;;;;;;;;;-144.99;92.24;52285.03;5088172;28;19951;-67
2022/06/22 00:46:34;;;;;;;;;;;;;;;-144.99;92.42;52340.06;5087081;28;20022;-67
2022/06/22 00:49:08;;;;;;;;;;;;;;;-144.99;91.51;52289.13;5092383;28;19978;-68
2022/06/22 00:51:37;;;;;;;;;;;;;;;-144.99;91.06;52325.81;5079493;28;19925;-67
2022/06/22 00:54:05;;;;;;;;;;;;;;;-144.99;91.23;52329.88;5090483;28;19953;-66
2022/06/22 00:56:39;;;;;;;;;;;;;;;-144.99;91.60;52325.81;5088826;28;19932;-66
2022/06/22 00:59:08;;;;;;;;;;;;;;;-144.99;92.41;52321.72;5087249;28;20369;-66
2022/06/22 01:01:38;;;;;;;;;;;;;;;-144.99;92.60;52325.81;5090791;28;19924;-67
2022/06/22 01:04:08;;;;;;;;;;;;;;;-144.99;92.86;52303.38;5087768;28;19924;-66
2022/06/22 01:06:39;;;;;;;;;;;;;;;-144.99;92.58;52325.81;5086749;28;19924;-66
2022/06/22 01:09:12;;;;;;;;;;;;;;;-144.99;92.60;52338.03;5091125;28;19973;-66
2022/06/22 01:14:29;;;;;;;;;;;;;;;-144.99;93.68;52309.50;5089931;28;19934;-67
2022/06/22 01:16:59;;;;;;;;;;;;;;;-144.99;93.91;52344.16;5086110;28;19947;-67
2022/06/22 01:19:33;;;;;;;;;;;;;;;-144.99;94.07;52289.13;5087794;28;20038;-66
2022/06/22 01:22:06;;;;;;;;;;;;;;;-144.99;94.16;52309.50;5087592;28;19969;-67
2022/06/22 01:24:37;;;;;;;;;;;;;;;-144.99;94.50;52329.88;5086695;28;20416;-66
2022/06/22 01:27:22;;;;;;;;;;;;;;;-144.99;95.49;52317.66;5078597;28;20394;-65
2022/06/22 01:29:50;;;;;;;;;;;;;;;-144.99;95.62;52338.03;5082495;28;19932;-66
2022/06/22 01:32:21;;;;;;;;;;;;;;;-144.99;95.95;52315.59;5088230;28;20563;-66
2022/06/22 01:34:48;;;;;;;;;;;;;;;-144.99;95.77;52329.88;5088477;28;19990;-62
2022/06/22 01:37:16;;;;;;;;;;;;;;;-144.99;95.40;52342.09;5089323;28;19935;-62
2022/06/22 01:39:42;;;;;;;;;;;;;;;-144.99;95.75;52321.72;5087168;28;20404;-62
2022/06/22 01:42:17;;;;;;;;;;;;;;;-144.99;96.07;52354.34;5084580;28;20682;-62
2022/06/22 01:44:49;;;;;;;;;;;;;;;-144.99;96.46;52293.19;5079690;28;20038;-62
2022/06/22 01:47:23;;;;;;;;;;;;;;;-144.99;97.22;52370.63;5087926;28;19924;-62
2022/06/22 01:49:59;;;;;;;;;;;;;;;-144.99;97.35;52299.31;5087036;28;19924;-62
2022/06/22 01:52:37;;;;;;;;;;;;;;;-144.99;96.73;52342.09;5085571;28;20064;-61
2022/06/22 01:55:07;;;;;;;;;;;;;;;-144.99;96.32;52289.13;5081441;28;20365;-63
2022/06/22 01:57:36;;;;;;;;;;;;;;;-144.99;95.86;52342.09;5085161;28;20295;-63
2022/06/22 02:00:06;;;;;;;;;;;;;;;-144.99;95.50;52313.56;5081420;28;20353;-68
2022/06/22 02:02:37;;;;;;;;;;;;;;;-144.99;95.79;52346.19;5091266;28;20064;-67
2022/06/22 02:05:06;;;;;;;;;;;;;;;-144.99;96.46;52354.34;5089866;28;19939;-67
2022/06/22 02:07:46;;;;;;;;;;;;;;;-144.99;96.42;52325.81;5084669;28;19931;-66
2022/06/22 02:10:18;;;;;;;;;;;;;;;-144.99;96.61;52317.66;5085651;28;20273;-65
2022/06/22 02:12:47;;;;;;;;;;;;;;;-144.99;96.56;52289.13;5093162;28;19954;-67
2022/06/22 02:15:20;;;;;;;;;;;;;;;-144.99;96.51;52350.25;5087143;28;20454;-67
2022/06/22 02:17:47;;;;;;;;;;;;;;;-144.99;96.38;52305.41;5085099;28;20435;-67
2022/06/22 02:20:25;;;;;;;;;;;;;;;-144.99;96.70;52329.88;5089364;28;19977;-68
2022/06/22 02:22:53;;;;;;;;;;;;;;;-144.99;97.21;52329.88;5090297;28;19924;-67
2022/06/22 02:25:20;;;;;;;;;;;;;;;-144.99;97.20;52329.88;5080963;28;19928;-66
2022/06/22 02:27:47;;;;;;;;;;;;;;;-144.99;96.94;52297.25;5086681;28;20044;-62
2022/06/22 02:30:15;;;;;;;;;;;;;;;-144.99;96.28;52366.56;5083424;28;19975;-63
2022/06/22 02:32:44;;;;;;;;;;;;;;;-144.99;95.71;52311.53;5086972;28;19964;-63
2022/06/22 02:35:11;;;;;;;;;;;;;;;-144.99;95.74;52338.03;5081487;28;19924;-62
2022/06/22 02:37:40;;;;;;;;;;;;;;;-144.99;95.51;52331.91;5086581;28;20438;-62
2022/06/22 02:40:10;;;;;;;;;;;;;;;-144.99;96.48;52315.59;5087235;28;20312;-61
2022/06/22 02:45:22;;;;;;;;;;;;;;;-144.99;95.63;52342.09;5085421;28;19939;-64
2022/06/22 02:47:49;;;;;;;;;;;;;;;-144.99;96.06;52333.94;5090028;28;19982;-63
2022/06/22 02:50:18;;;;;;;;;;;;;;;-144.99;96.33;52358.41;5089794;28;20308;-63
2022/06/22 02:52:47;;;;;;;;;;;;;;;-144.99;95.84;52305.41;5085539;28;20157;-64
2022/06/22 02:55:15;;;;;;;;;;;;;;;-144.99;94.86;52297.25;5082629;28;20021;-63
2022/06/22 02:57:46;;;;;;;;;;;;;;;-144.99;94.39;52340.06;5081739;28;19969;-62
2022/06/22 03:00:13;;;;;;;;;;;;;;;-144.99;95.30;52344.16;5089625;28;20398;-61
2022/06/22 03:02:42;;;;;;;;;;;;;;;-144.99;95.80;52305.41;5088656;28;19928;-61
2022/06/22 03:05:10;;;;;;;;;;;;;;;-144.99;95.92;52346.19;5079711;28;20015;-62
2022/06/22 03:07:37;;;;;;;;;;;;;;;-144.99;95.97;52348.22;5087705;28;19924;-62
2022/06/22 03:10:05;;;;;;;;;;;;;;;-144.99;96.26;52358.41;5086348;28;19934;-62
2022/06/22 03:12:32;;;;;;;;;;;;;;;-144.99;96.45;52331.91;5087877;28;20044;-62
2022/06/22 03:15:02;;;;;;;;;;;;;;;-144.99;96.62;52293.19;5084963;28;19928;-60
2022/06/22 03:17:31;;;;;;;;;;;;;;;-144.99;96.89;52329.88;5081924;28;19967;-60
2022/06/22 03:20:03;;;;;;;;;;;;;;;-144.99;96.97;52325.81;5080008;28;20024;-62
2022/06/22 03:22:31;;;;;;;;;;;;;;;-144.99;96.94;52356.38;5077463;28;20027;-63
2022/06/22 03:25:01;;;;;;;;;;;;;;;-144.99;96.58;52382.88;5076962;28;19931;-62
2022/06/22 03:27:30;;;;;;;;;;;;;;;-144.99;96.33;52280.97;5084185;28;20009;-62
2022/06/22 03:29:58;;;;;;;;;;;;;;;-144.99;96.18;52317.66;5088386;28;19924;-62
2022/06/22 03:32:28;;;;;;;;;;;;;;;-144.99;96.57;52303.38;5087755;28;19928;-63
2022/06/22 03:35:00;;;;;;;;;;;;;;;-144.99;96.84;52327.84;5088057;28;19924;-63
2022/06/22 03:37:31;;;;;;;;;;;;;;;-144.99;96.83;52313.56;5084444;28;20019;-64
2022/06/22 03:39:58;;;;;;;;;;;;;;;-144.99;96.92;52280.97;5092914;28;20020;-63
2022/06/22 03:42:27;;;;;;;;;;;;;;;-144.99;97.26;52329.88;5080195;28;19986;-64
2022/06/22 03:44:55;;;;;;;;;;;;;;;-144.99;96.60;52289.13;5086831;28;19925;-63
2022/06/22 03:47:25;;;;;;;;;;;;;;;-144.99;96.85;52325.81;5080733;28;19961;-63
2022/06/22 03:49:57;;;;;;;;;;;;;;;-144.99;96.85;52354.34;5090572;28;20011;-63
2022/06/22 03:52:29;;;;;;;;;;;;;;;-144.99;96.70;52305.41;5089755;28;19969;-62
2022/06/22 03:54:58;;;;;;;;;;;;;;;-144.99;96.45;52315.59;5092196;28;19930;-66
2022/06/22 03:57:26;;;;;;;;;;;;;;;-144.99;96.78;52325.81;5089512;28;20427;-61
2022/06/22 03:59:55;;;;;;;;;;;;;;;-144.99;97.49;52331.91;5091457;28;19960;-61
2022/06/22 04:02:22;;;;;;;;;;;;;;;-144.99;98.36;52305.41;5089187;28;19932;-61
2022/06/22 04:04:51;;;;;;;;;;;;;;;-144.99;98.94;52309.50;5091887;28;20422;-62
2022/06/22 04:07:17;;;;;;;;;;;;;;;-144.99;98.76;52313.56;5089164;28;20038;-61
2022/06/22 04:09:49;;;;;;;;;;;;;;;-144.99;99.13;52299.31;5089861;28;20390;-61
2022/06/22 04:12:20;;;;;;;;;;;;;;;-144.99;99.30;52313.56;5091429;28;20011;-63
2022/06/22 04:14:50;;;;;;;;;;;;;;;-144.99;99.80;52307.47;5090589;28;20242;-61
2022/06/22 04:17:20;;;;;;;;;;;;;;;-144.99;100.00;52305.41;5088651;28;19963;-63
2022/06/22 04:19:49;;;;;;;;;;;;;;;-144.99;100.00;52305.41;5092097;28;19924;-65
2022/06/22 04:22:18;;;;;;;;;;;;;;;-144.99;100.00;52342.09;5089125;28;19961;-63
2022/06/22 04:24:48;;;;;;;;;;;;;;;-144.99;100.00;52301.34;5087382;28;19990;-63
2022/06/22 04:27:17;;;;;;;;;;;;;;;-144.99;100.00;52321.72;5084669;28;19924;-63
2022/06/22 04:29:47;;;;;;;;;;;;;;;-144.99;100.00;52289.13;5092989;28;20414;-64
2022/06/22 04:32:15;;;;;;;;;;;;;;;-144.99;100.00;52299.31;5089992;28;19946;-63
2022/06/22 04:34:45;;;;;;;;;;;;;;;-144.99;100.00;52278.91;5090619;28;19928;-63
2022/06/22 04:37:20;;;;;;;;;;;;;;;-144.99;100.00;52293.19;5085190;28;19939;-63
2022/06/22 04:39:49;;;;;;;;;;;;;;;-144.99;100.00;52287.06;5089299;28;19971;-63
2022/06/22 04:42:16;;;;;;;;;;;;;;;-144.99;100.00;52268.72;5091862;28;19974;-64
2022/06/22 04:44:45;;;;;;;;;;;;;;;-144.99;100.00;52258.53;5088914;28;20446;-63
2022/06/22 04:47:17;;;;;;;;;;;;;;;-144.99;100.00;52254.47;5080776;28;19971;-69
2022/06/22 04:49:47;;;;;;;;;;;;;;;-144.99;100.00;52293.19;5085793;28;19932;-68
2022/06/22 04:52:19;;;;;;;;;;;;;;;-144.99;100.00;52280.97;5076808;28;19924;-66
2022/06/22 04:54:48;;;;;;;;;;;;;;;-144.99;100.00;52293.19;5082589;28;19931;-69
2022/06/22 04:57:18;;;;;;;;;;;;;;;-144.99;100.00;52256.50;5085158;28;19932;-67
2022/06/22 04:59:45;;;;;;;;;;;;;;;-144.99;100.00;52268.72;5092257;28;19967;-67
2022/06/22 05:02:13;;;;;;;;;;;;;;;-144.99;100.00;52244.28;4379270;28;10000746;-67
2022/06/22 05:04:43;;;;;;;;;;;;;;;-144.99;100.00;52268.72;5077526;28;20332;-67
2022/06/22 05:07:18;;;;;;;;;;;;;;;-144.99;100.00;52276.88;5085649;28;20438;-58
2022/06/22 05:09:47;;;;;;;;;;;;;;;-144.99;99.42;52270.78;5083141;28;19931;-67
2022/06/22 05:12:15;;;;;;;;;;;;;;;-144.99;98.92;52252.44;5085789;28;19928;-66
2022/06/22 05:14:42;;;;;;;;;;;;;;;-144.99;98.45;52264.66;5084600;28;20271;-65
2022/06/22 05:17:13;;;;;;;;;;;;;;;-144.99;98.00;52276.88;5092806;28;20276;-65
2022/06/22 05:19:43;;;;;;;;;;;;;;;-144.99;97.22;52223.88;5078462;28;19982;-65
2022/06/22 05:22:13;;;;;;;;;;;;;;;-144.99;96.66;52223.88;5074195;28;19971;-65
2022/06/22 05:24:43;;;;;;;;;;;;;;;-144.99;96.37;52276.88;5079341;28;19928;-65
2022/06/22 05:27:12;;;;;;;;;;;;;;;-144.99;96.19;52285.03;5080605;28;20018;-65
2022/06/22 05:29:40;;;;;;;;;;;;;;;-144.99;95.95;52250.38;5092046;28;20455;-65
2022/06/22 05:32:09;;;;;;;;;;;;;;;-144.99;95.83;52248.34;5081133;28;20019;-65
2022/06/22 05:34:39;;;;;;;;;;;;;;;-144.99;95.20;52209.63;5083630;28;19928;-65
2022/06/22 05:37:08;;;;;;;;;;;;;;;-144.99;94.51;52236.13;5079028;28;20018;-66
2022/06/22 05:39:35;;;;;;;;;;;;;;;-144.99;94.23;52223.88;5081967;28;19986;-66
2022/06/22 05:42:02;;;;;;;;;;;;;;;-144.99;93.89;52252.44;5081417;28;20027;-66
2022/06/22 05:44:29;;;;;;;;;;;;;;;-144.99;92.67;52256.50;5089069;28;19959;-64
2022/06/22 05:46:56;;;;;;;;;;;;;;;-144.99;92.12;52240.19;5082056;28;19938;-65
2022/06/22 05:49:26;;;;;;;;;;;;;;;-144.99;91.59;52207.59;5087020;28;20323;-66
2022/06/22 05:51:55;;;;;;;;;;;;;;;-144.99;91.06;52240.19;5083409;28;20004;-65
2022/06/22 05:54:27;;;;;;;;;;;;;;;-144.99;89.67;52195.34;5085368;28;19933;-66
2022/06/22 05:56:58;;;;;;;;;;;;;;;-144.99;89.20;52215.75;5086719;28;19939;-66
2022/06/22 05:59:28;;;;;;;;;;;;;;;-144.99;88.33;52248.34;5088116;28;20015;-67
2022/06/22 06:01:58;;;;;;;;;;;;;;;-144.99;87.81;52223.88;5088616;28;19955;-68
2022/06/22 06:04:31;;;;;;;;;;;;;;;-144.99;87.33;52256.50;5088219;28;20448;-68
2022/06/22 06:07:00;;;;;;;;;;;;;;;-144.99;86.77;52238.16;5077572;28;19925;-67
2022/06/22 06:09:29;;;;;;;;;;;;;;;-144.99;86.38;52203.50;5088188;28;20393;-67
2022/06/22 06:12:00;;;;;;;;;;;;;;;-144.99;85.54;52223.88;5087158;28;20439;-68
2022/06/22 06:14:30;;;;;;;;;;;;;;;-144.99;84.50;52199.44;5088926;28;19928;-67
2022/06/22 06:16:59;;;;;;;;;;;;;;;-144.99;83.72;52203.50;5089243;28;19928;-67
2022/06/22 06:19:29;;;;;;;;;;;;;;;-144.99;83.18;52203.50;5078797;28;20420;-67
2022/06/22 06:21:57;;;;;;;;;;;;;;;-144.99;82.64;52215.75;5087142;28;19928;-69
2022/06/22 06:24:26;;;;;;;;;;;;;;;-144.99;81.82;52199.44;5079183;28;19928;-67
2022/06/22 06:29:50;;;;;;;;;;;;;;;-144.99;79.94;52199.44;5025868;28;19924;-67
2022/06/22 06:32:26;;;;;;;;;;;;;;;-144.99;78.88;52174.97;5084564;28;19985;-68
2022/06/22 06:34:56;;;;;;;;;;;;;;;-144.99;77.92;52223.88;5082011;28;19928;-68
2022/06/22 06:37:24;;;;;;;;;;;;;;;-144.99;77.37;52168.84;5086183;28;20021;-68
2022/06/22 06:39:53;;;;;;;;;;;;;;;-144.99;76.39;52215.75;5075967;28;19947;-67
2022/06/22 06:42:27;;;;;;;;;;;;;;;-144.99;75.79;52158.66;5084108;28;19923;-68
2022/06/22 06:44:54;;;;;;;;;;;;;;;-144.99;75.37;52199.44;5083297;28;20304;-67
2022/06/22 06:47:25;;;;;;;;;;;;;;;-144.99;74.27;52154.59;4735436;28;10000600;-65
2022/06/22 06:49:55;;;;;;;;;;;;;;;-144.99;73.72;52187.19;5085651;28;20647;-65
2022/06/22 06:52:26;;;;;;;;;;;;;;;-144.99;73.49;52154.59;5073985;28;19932;-68
2022/06/22 06:54:57;;;;;;;;;;;;;;;-144.99;73.21;52179.06;5082247;28;20331;-67
2022/06/22 06:57:25;;;;;;;;;;;;;;;-144.99;72.56;52140.31;5081231;28;19935;-68
2022/06/22 06:59:54;;;;;;;;;;;;;;;-144.99;71.63;52187.19;5080839;28;20416;-67
2022/06/22 07:02:24;;;;;;;;;;;;;;;-144.99;70.87;52166.81;5080186;28;19932;-67
2022/06/22 07:04:50;;;;;;;;;;;;;;;-144.99;70.09;52170.91;5078762;28;20009;-66
2022/06/22 07:07:23;;;;;;;;;;;;;;;-144.99;69.52;52187.19;5082023;28;20076;-65
2022/06/22 07:09:50;;;;;;;;;;;;;;;-144.99;69.44;52203.50;5085979;28;19924;-65
2022/06/22 07:12:22;;;;;;;;;;;;;;;-144.99;69.24;52179.06;5082851;28;19928;-64
2022/06/22 07:14:50;;;;;;;;;;;;;;;-144.99;68.86;52179.06;5078514;28;20347;-65
2022/06/22 07:17:18;;;;;;;;;;;;;;;-144.99;68.19;52199.44;5084390;28;19928;-65
2022/06/22 07:19:48;;;;;;;;;;;;;;;-144.99;67.69;52205.53;5082971;28;19928;-65
2022/06/22 07:22:18;;;;;;;;;;;;;;;-144.99;67.86;52185.16;5079601;28;19928;-65
2022/06/22 07:24:47;;;;;;;;;;;;;;;-144.99;67.48;52166.81;5083935;28;20331;-64
2022/06/22 07:27:18;;;;;;;;;;;;;;;-144.99;67.59;52207.59;5088299;28;19983;-64
2022/06/22 07:29:47;;;;;;;;;;;;;;;-144.99;67.34;52152.56;5088265;28;19954;-65
2022/06/22 07:32:21;;;;;;;;;;;;;;;-144.99;67.09;52183.13;5086740;28;19977;-64
2022/06/22 07:34:56;;;;;;;;;;;;;;;-144.99;67.02;52170.91;5086847;28;20017;-65
2022/06/22 07:37:25;;;;;;;;;;;;;;;-144.99;65.82;52174.97;5088336;28;19924;-65
2022/06/22 07:39:55;;;;;;;;;;;;;;;-144.99;65.98;52170.91;5089611;28;20385;-63
2022/06/22 07:42:21;;;;;;;;;;;;;;;-144.99;67.11;52183.13;5087726;28;20062;-65
2022/06/22 07:44:49;;;;;;;;;;;;;;;-144.99;66.53;52166.81;5085978;28;20400;-65
2022/06/22 07:47:26;;;;;;;;;;;;;;;-144.99;65.22;52179.06;5087687;28;20273;-64
2022/06/22 07:49:57;;;;;;;;;;;;;;;-144.99;64.25;52146.44;5080972;28;19928;-64
2022/06/22 07:52:25;;;;;;;;;;;;;;;-144.99;64.64;52150.53;5085377;28;19928;-64
2022/06/22 07:54:54;;;;;;;;;;;;;;;-144.99;64.21;52166.81;5086485;28;20408;-64
2022/06/22 07:57:27;;;;;;;;;;;;;;;-144.99;64.07;52134.22;5091630;28;19978;-64
2022/06/22 07:59:55;;;;;;;;;;;;;;;-144.99;63.04;52179.06;5085431;28;20022;-65
2022/06/22 08:02:34;;;;;;;;;;;;;;;-144.99;62.53;52174.97;5087232;28;20724;-64
2022/06/22 08:05:05;;;;;;;;;;;;;;;-144.99;61.77;52134.22;5088083;28;19924;-64
2022/06/22 08:07:35;;;;;;;;;;;;;;;-144.99;60.90;52105.69;5084397;28;19944;-64
2022/06/22 08:10:05;;;;;;;;;;;;;;;-144.99;60.53;52160.72;5089370;28;19986;-64
2022/06/22 08:12:34;;;;;;;;;;;;;;;-144.99;60.11;52121.97;5082737;28;19932;-65
2022/06/22 08:15:03;;;;;;;;;;;;;;;-144.99;59.44;52146.44;5087500;28;19997;-64
2022/06/22 08:17:39;;;;;;;;;;;;;;;-144.99;58.42;52174.97;5077057;28;19929;-64
2022/06/22 08:20:06;;;;;;;;;;;;;;;-144.99;58.40;52121.97;5087802;28;20381;-64
2022/06/22 08:22:32;;;;;;;;;;;;;;;-144.99;58.45;52126.06;5089424;28;19971;-64
2022/06/22 08:25:00;;;;;;;;;;;;;;;-144.99;57.66;52121.97;5085738;28;19932;-64
2022/06/22 08:27:28;;;;;;;;;;;;;;;-144.99;56.20;52097.53;5089476;28;20113;-64
2022/06/22 08:29:55;;;;;;;;;;;;;;;-144.99;55.15;52146.44;5086832;28;19932;-65
2022/06/22 08:32:26;;;;;;;;;;;;;;;-144.99;54.75;52105.69;5083686;28;19936;-65
2022/06/22 08:34:55;;;;;;;;;;;;;;;-144.99;54.41;52105.69;5084273;28;19928;-65
2022/06/22 08:37:25;;;;;;;;;;;;;;;-144.99;54.14;52113.84;5088245;28;19940;-65
2022/06/22 08:39:55;;;;;;;;;;;;;;;-144.99;54.05;52134.22;5078504;28;20022;-64
2022/06/22 08:42:28;;;;;;;;;;;;;;;-144.99;51.87;52150.53;5086279;28;20346;-65
2022/06/22 08:45:03;;;;;;;;;;;;;;;-144.99;52.24;52158.66;5084078;28;19928;-64
2022/06/22 08:47:50;;;;;;;;;;;;;;;-144.99;52.96;52162.75;5087490;28;19993;-64
2022/06/22 08:50:31;;;;;;;;;;;;;;;-144.99;53.51;52158.66;5050544;28;19931;-64
2022/06/22 08:53:08;;;;;;;;;;;;;;;-144.99;53.24;52146.44;5077406;28;19977;-64
2022/06/22 08:55:52;;;;;;;;;;;;;;;-144.99;53.13;52113.84;5083175;28;19967;-64
2022/06/22 08:58:29;;;;;;;;;;;;;;;-144.99;53.04;52146.44;5079418;28;19959;-64
2022/06/22 09:01:00;;;;;;;;;;;;;;;-144.99;52.24;52132.19;5083854;28;19932;-65
2022/06/22 09:03:41;;;;;;;;;;;;;;;-144.99;52.26;52109.75;5080473;28;19928;-65
2022/06/22 09:06:23;;;;;;;;;;;;;;;-144.99;52.29;52113.84;5076761;28;19928;-65
2022/06/22 09:09:13;;;;;;;;;;;;;;;-144.99;51.90;52081.22;5086837;28;19935;-65
2022/06/22 09:11:44;;;;;;;;;;;;;;;-144.99;50.93;52109.75;5074778;28;19928;-64
2022/06/22 09:14:25;;;;;;;;;;;;;;;-144.99;49.71;52093.44;5083085;28;20053;-66
2022/06/22 09:17:01;;;;;;;;;;;;;;;-144.99;48.93;52134.22;5076313;28;19976;-65
2022/06/22 09:19:45;;;;;;;;;;;;;;;-144.99;49.16;52069.00;5078764;28;19935;-66
2022/06/22 09:22:15;;;;;;;;;;;;;;;-144.99;48.89;52089.38;5078499;28;19932;-66
2022/06/22 09:24:47;;;;;;;;;;;;;;;-144.99;48.02;52093.44;5089239;28;20220;-66
2022/06/22 09:27:17;;;;;;;;;;;;;;;-144.99;48.03;52081.22;5082028;28;20324;-67
2022/06/22 09:30:07;;;;;;;;;;;;;;;-144.99;47.12;52109.75;5082589;28;19971;-67
2022/06/22 09:32:44;;;;;;;;;;;;;;;-144.99;46.59;52077.16;5067295;28;20018;-66
2022/06/22 09:35:40;;;;;;;;;;;;;;;-144.99;46.19;52107.72;5082898;28;19928;-66
2022/06/22 09:38:15;;;;;;;;;;;;;;;-144.99;45.84;52077.16;5083873;28;19924;-66
2022/06/22 09:40:52;;;;;;;;;;;;;;;-144.99;45.32;52062.88;5081445;28;19930;-66
2022/06/22 09:43:36;;;;;;;;;;;;;;;-144.99;45.25;52081.22;5086050;28;20039;-66
2022/06/22 09:46:10;;;;;;;;;;;;;;;-144.99;44.93;52077.16;5081815;28;20020;-66
2022/06/22 09:48:53;;;;;;;;;;;;;;;-144.99;44.05;52066.97;5078002;28;19982;-68
2022/06/22 09:51:27;;;;;;;;;;;;;;;-144.99;43.77;52081.22;5082821;28;19981;-66
2022/06/22 09:54:04;;;;;;;;;;;;;;;-144.99;43.13;52052.69;5081740;28;19928;-66
2022/06/22 09:56:51;;;;;;;;;;;;;;;-144.99;42.97;52054.72;5081767;28;20487;-66
2022/06/22 09:59:33;;;;;;;;;;;;;;;-144.99;42.74;52073.06;5085798;28;19924;-65
2022/06/22 10:02:13;;;;;;;;;;;;;;;-144.99;41.98;52099.56;5036573;28;19934;-67
2022/06/22 10:05:03;;;;;;;;;;;;;;;-144.99;42.75;52064.91;5076160;28;19950;-66
2022/06/22 10:07:43;;;;;;;;;;;;;;;-144.99;43.06;52077.16;5087083;28;19932;-66
2022/06/22 10:10:15;;;;;;;;;;;;;;;-144.99;42.35;52046.56;5084059;28;19989;-67
2022/06/22 10:12:57;;;;;;;;;;;;;;;-144.99;42.47;52087.34;5086574;28;20338;-67
2022/06/22 10:15:33;;;;;;;;;;;;;;;-144.99;40.91;52064.91;5086877;28;20434;-67
2022/06/22 10:18:08;;;;;;;;;;;;;;;-144.99;40.80;52095.50;5086851;28;20196;-66
2022/06/22 10:20:39;;;;;;;;;;;;;;;-144.99;40.14;52028.22;5089265;28;20429;-66
2022/06/22 10:23:12;;;;;;;;;;;;;;;-144.99;40.19;52044.53;5080307;28;19931;-67
2022/06/22 10:25:51;;;;;;;;;;;;;;;-144.99;39.88;52034.34;5079737;28;19928;-67
2022/06/22 10:28:32;;;;;;;;;;;;;;;-144.99;40.02;52022.13;5086778;28;19931;-66
2022/06/22 10:31:03;;;;;;;;;;;;;;;-144.99;39.60;52020.09;5091455;28;20021;-67
2022/06/22 10:33:54;;;;;;;;;;;;;;;-144.99;39.02;52048.63;5087896;28;20065;-66
2022/06/22 10:36:38;;;;;;;;;;;;;;;-144.99;38.84;52028.22;5049400;28;19946;-67
2022/06/22 10:39:19;;;;;;;;;;;;;;;-144.99;37.66;52056.78;5086508;28;19928;-65
2022/06/22 10:45:09;;;;;;;;;;;;;;;-144.99;38.07;52077.16;5093218;28;19935;-67
2022/06/22 10:47:44;;;;;;;;;;;;;;;-144.99;38.84;52093.44;5076037;28;19929;-66
2022/06/22 10:50:18;;;;;;;;;;;;;;;-144.99;39.65;52064.91;5086208;28;19928;-68
2022/06/22 10:52:56;;;;;;;;;;;;;;;-144.99;40.43;52077.16;5077162;28;19936;-67
2022/06/22 10:55:32;;;;;;;;;;;;;;;-144.99;40.28;52056.78;5077135;28;19993;-68
2022/06/22 10:58:04;;;;;;;;;;;;;;;-144.99;40.78;52073.06;5077563;28;19928;-64
2022/06/22 11:00:42;;;;;;;;;;;;;;;-144.99;40.30;52075.09;5084909;28;19928;-65
2022/06/22 11:03:26;;;;;;;;;;;;;;;-144.99;39.83;52040.47;5084626;28;19924;-66
2022/06/22 11:06:08;;;;;;;;;;;;;;;-144.99;39.06;52040.47;5075946;28;19928;-66
2022/06/22 11:08:49;;;;;;;;;;;;;;;-144.99;38.99;52003.78;5079686;28;20386;-66
2022/06/22 11:11:21;;;;;;;;;;;;;;;-144.99;39.37;52048.63;5084533;28;19942;-66
2022/06/22 11:14:06;;;;;;;;;;;;;;;-144.99;39.36;52052.69;5082963;28;20424;-66
2022/06/22 11:16:46;;;;;;;;;;;;;;;-144.99;39.18;52052.69;5085375;28;20023;-66
2022/06/22 11:19:33;;;;;;;;;;;;;;;-144.99;38.59;52016.00;5085743;28;19985;-66
2022/06/22 11:22:08;;;;;;;;;;;;;;;-144.99;38.04;52020.09;5076967;28;19990;-65
2022/06/22 11:24:49;;;;;;;;;;;;;;;-144.99;38.27;52003.78;5073427;28;19928;-65
2022/06/22 11:33:18;;;;;;;;;;;;;;;-144.99;35.91;51987.47;5053752;28;20155;-66
2022/06/22 11:35:53;;;;;;;;;;;;;;;-144.99;36.49;52038.44;5075353;28;19994;-67
2022/06/22 11:38:35;;;;;;;;;;;;;;;-144.99;37.00;52024.16;5079899;28;19928;-66
2022/06/22 11:41:09;;;;;;;;;;;;;;;-144.99;36.51;51979.31;5075463;28;19932;-67
2022/06/22 11:43:45;;;;;;;;;;;;;;;-144.99;36.29;52007.84;5087249;28;20565;-68
2022/06/22 11:46:18;;;;;;;;;;;;;;;-144.99;36.28;52036.38;5075736;28;19982;-65
2022/06/22 11:49:01;;;;;;;;;;;;;;;-144.99;36.74;51983.41;5083377;28;20011;-66
2022/06/22 11:51:33;;;;;;;;;;;;;;;-144.99;36.47;51979.31;5077219;28;20269;-65
2022/06/22 11:54:14;;;;;;;;;;;;;;;-144.99;35.10;51989.50;5081299;28;20357;-66
2022/06/22 11:56:50;;;;;;;;;;;;;;;-144.99;35.38;51971.16;5074988;28;19932;-66
2022/06/22 11:59:38;;;;;;;;;;;;;;;-144.99;36.28;52003.78;5083618;28;19932;-67
2022/06/22 12:02:31;;;;;;;;;;;;;;;-144.99;36.23;52044.53;5082567;28;19928;-66
2022/06/22 12:05:10;;;;;;;;;;;;;;;-144.99;35.51;52069.00;5080515;28;19973;-68
2022/06/22 12:07:50;;;;;;;;;;;;;;;-144.99;36.57;52022.13;5080359;28;19981;-69
2022/06/22 12:10:34;;;;;;;;;;;;;;;-144.99;36.06;52016.00;5080834;28;20018;-69
2022/06/22 12:13:08;;;;;;;;;;;;;;;-144.99;35.42;52001.75;5089609;28;19942;-68
2022/06/22 12:15:42;;;;;;;;;;;;;;;-144.99;35.51;51995.63;5082718;28;20483;-70
2022/06/22 12:18:20;;;;;;;;;;;;;;;-144.99;35.87;51999.69;5085314;28;19928;-67
2022/06/22 12:20:53;;;;;;;;;;;;;;;-144.99;35.49;52028.22;5086849;28;19936;-68
2022/06/22 12:23:25;;;;;;;;;;;;;;;-144.99;35.91;52040.47;5082897;28;19924;-67
2022/06/22 12:26:01;;;;;;;;;;;;;;;-144.99;35.58;52005.81;5086057;28;20005;-68
2022/06/22 12:28:38;;;;;;;;;;;;;;;-144.99;35.46;52038.44;5079415;28;19939;-69
2022/06/22 12:31:08;;;;;;;;;;;;;;;-144.99;35.40;52042.50;5019321;28;1823182;-70
2022/06/22 12:33:38;;;;;;;;;;;;;;;-144.99;35.58;52030.28;5080792;28;20011;-71
2022/06/22 12:36:09;;;;;;;;;;;;;;;-144.99;35.12;52028.22;5084785;28;20023;-69
2022/06/22 12:38:38;;;;;;;;;;;;;;;-144.99;35.60;52007.84;5081528;28;20184;-68
2022/06/22 12:41:11;;;;;;;;;;;;;;;-144.99;35.73;51983.41;5084922;28;19928;-70
2022/06/22 12:43:48;;;;;;;;;;;;;;;-144.99;36.06;51997.66;5087108;28;20311;-70
2022/06/22 12:46:18;;;;;;;;;;;;;;;-144.99;35.68;51995.63;5079897;28;19928;-69
2022/06/22 12:49:11;;;;;;;;;;;;;;;-144.99;35.58;51991.56;5085221;28;20201;-68
2022/06/22 12:51:44;;;;;;;;;;;;;;;-144.99;36.19;52003.78;5085645;28;19923;-70
2022/06/22 12:54:15;;;;;;;;;;;;;;;-144.99;35.95;51995.63;5079041;28;19931;-69
2022/06/22 12:56:46;;;;;;;;;;;;;;;-144.99;36.05;51991.56;5081715;28;19935;-68
2022/06/22 12:59:14;;;;;;;;;;;;;;;-144.99;36.28;51981.38;5087223;28;20269;-69
2022/06/22 13:01:41;;;;;;;;;;;;;;;-144.99;36.31;51993.59;5087955;28;20026;-67
2022/06/22 13:04:10;;;;;;;;;;;;;;;-144.99;35.97;51975.25;5086046;28;19939;-69
2022/06/22 13:06:40;;;;;;;;;;;;;;;-144.99;35.77;51967.09;5083707;28;19932;-69
2022/06/22 13:09:08;;;;;;;;;;;;;;;-144.99;35.59;52032.31;5086999;28;20035;-68